sensor_id;sensor_type;location;lat;lon;timestamp;P1;durP1;ratioP1;P2;durP2;ratioP2
70535;SDS011;58089;48.752;11.338;2024-02-14T00:00:43;9.00;;;2.85;;
70535;SDS011;58089;48.752;11.338;2024-02-14T00:03:09;8.20;;;2.60;;
70535;SDS011;58089;48.752;11.338;2024-02-14T00:05:34;7.33;;;2.53;;
70535;SDS011;58089;48.752;11.338;2024-02-14T00:07:59;7.37;;;2.30;;
70535;SDS011;58089;48.752;11.338;2024-02-14T00:10:25;5.80;;;2.23;;
70535;SDS011;58089;48.752;11.338;2024-02-14T00:12:50;6.43;;;2.50;;
70535;SDS011;58089;48.752;11.338;2024-02-14T00:15:16;8.30;;;2.45;;
70535;SDS011;58089;48.752;11.338;2024-02-14T00:17:41;6.93;;;2.50;;
70535;SDS011;58089;48.752;11.338;2024-02-14T00:20:08;7.28;;;2.53;;
70535;SDS011;58089;48.752;11.338;2024-02-14T00:22:37;5.63;;;2.00;;
70535;SDS011;58089;48.752;11.338;2024-02-14T00:25:02;6.40;;;2.53;;
70535;SDS011;58089;48.752;11.338;2024-02-14T00:27:28;5.70;;;2.22;;
70535;SDS011;58089;48.752;11.338;2024-02-14T00:29:53;6.60;;;2.30;;
70535;SDS011;58089;48.752;11.338;2024-02-14T00:32:19;7.27;;;2.43;;
70535;SDS011;58089;48.752;11.338;2024-02-14T00:34:44;7.50;;;3.00;;
70535;SDS011;58089;48.752;11.338;2024-02-14T00:37:10;8.70;;;2.28;;
70535;SDS011;58089;48.752;11.338;2024-02-14T00:39:36;8.23;;;2.30;;
70535;SDS011;58089;48.752;11.338;2024-02-14T00:42:01;8.83;;;2.97;;
70535;SDS011;58089;48.752;11.338;2024-02-14T00:44:26;6.20;;;2.50;;
70535;SDS011;58089;48.752;11.338;2024-02-14T00:46:58;6.27;;;2.27;;
70535;SDS011;58089;48.752;11.338;2024-02-14T00:49:24;7.03;;;2.40;;
70535;SDS011;58089;48.752;11.338;2024-02-14T00:51:50;8.15;;;2.30;;
70535;SDS011;58089;48.752;11.338;2024-02-14T00:54:16;6.50;;;2.10;;
70535;SDS011;58089;48.752;11.338;2024-02-14T00:56:41;7.87;;;2.40;;
70535;SDS011;58089;48.752;11.338;2024-02-14T00:59:06;5.40;;;2.10;;
70535;SDS011;58089;48.752;11.338;2024-02-14T01:01:33;7.23;;;1.80;;
70535;SDS011;58089;48.752;11.338;2024-02-14T01:03:58;6.45;;;2.05;;
70535;SDS011;58089;48.752;11.338;2024-02-14T01:06:23;6.23;;;2.20;;
70535;SDS011;58089;48.752;11.338;2024-02-14T01:08:49;5.65;;;2.08;;
70535;SDS011;58089;48.752;11.338;2024-02-14T01:11:15;5.67;;;2.20;;
70535;SDS011;58089;48.752;11.338;2024-02-14T01:13:40;8.53;;;2.17;;
70535;SDS011;58089;48.752;11.338;2024-02-14T01:16:06;5.75;;;2.30;;
70535;SDS011;58089;48.752;11.338;2024-02-14T01:18:32;5.45;;;2.00;;
70535;SDS011;58089;48.752;11.338;2024-02-14T01:20:58;5.20;;;2.03;;
70535;SDS011;58089;48.752;11.338;2024-02-14T01:23:24;6.43;;;2.00;;
70535;SDS011;58089;48.752;11.338;2024-02-14T01:25:49;6.20;;;2.40;;
70535;SDS011;58089;48.752;11.338;2024-02-14T01:28:15;5.17;;;1.50;;
70535;SDS011;58089;48.752;11.338;2024-02-14T01:30:42;5.93;;;2.13;;
70535;SDS011;58089;48.752;11.338;2024-02-14T01:33:07;6.27;;;2.40;;
70535;SDS011;58089;48.752;11.338;2024-02-14T01:35:33;5.27;;;2.03;;
70535;SDS011;58089;48.752;11.338;2024-02-14T01:37:58;5.50;;;1.97;;
70535;SDS011;58089;48.752;11.338;2024-02-14T01:40:23;7.00;;;2.37;;
70535;SDS011;58089;48.752;11.338;2024-02-14T01:42:49;5.70;;;2.07;;
70535;SDS011;58089;48.752;11.338;2024-02-14T01:45:14;8.30;;;2.73;;
70535;SDS011;58089;48.752;11.338;2024-02-14T01:47:40;6.63;;;2.15;;
70535;SDS011;58089;48.752;11.338;2024-02-14T01:50:06;6.07;;;2.17;;
70535;SDS011;58089;48.752;11.338;2024-02-14T01:52:34;5.87;;;1.90;;
70535;SDS011;58089;48.752;11.338;2024-02-14T01:55:01;5.97;;;1.90;;
70535;SDS011;58089;48.752;11.338;2024-02-14T01:57:27;6.28;;;2.20;;
70535;SDS011;58089;48.752;11.338;2024-02-14T01:59:53;5.90;;;2.27;;
70535;SDS011;58089;48.752;11.338;2024-02-14T02:02:19;6.90;;;2.00;;
70535;SDS011;58089;48.752;11.338;2024-02-14T02:04:45;6.37;;;2.10;;
70535;SDS011;58089;48.752;11.338;2024-02-14T02:07:10;7.00;;;1.90;;
70535;SDS011;58089;48.752;11.338;2024-02-14T02:09:36;5.50;;;2.07;;
70535;SDS011;58089;48.752;11.338;2024-02-14T02:12:01;5.90;;;2.00;;
70535;SDS011;58089;48.752;11.338;2024-02-14T02:14:26;6.37;;;1.97;;
70535;SDS011;58089;48.752;11.338;2024-02-14T02:16:52;6.90;;;2.30;;
70535;SDS011;58089;48.752;11.338;2024-02-14T02:19:18;5.55;;;1.92;;
70535;SDS011;58089;48.752;11.338;2024-02-14T02:21:43;5.30;;;2.00;;
70535;SDS011;58089;48.752;11.338;2024-02-14T02:24:11;6.43;;;1.90;;
70535;SDS011;58089;48.752;11.338;2024-02-14T02:26:36;7.90;;;2.00;;
70535;SDS011;58089;48.752;11.338;2024-02-14T02:29:02;5.87;;;2.07;;
70535;SDS011;58089;48.752;11.338;2024-02-14T02:31:27;6.45;;;2.10;;
70535;SDS011;58089;48.752;11.338;2024-02-14T02:33:52;5.90;;;2.07;;
70535;SDS011;58089;48.752;11.338;2024-02-14T02:36:17;8.50;;;3.13;;
70535;SDS011;58089;48.752;11.338;2024-02-14T02:38:43;10.63;;;4.33;;
70535;SDS011;58089;48.752;11.338;2024-02-14T02:41:09;12.75;;;5.53;;
70535;SDS011;58089;48.752;11.338;2024-02-14T02:43:34;12.30;;;4.67;;
70535;SDS011;58089;48.752;11.338;2024-02-14T02:46:00;12.97;;;4.80;;
70535;SDS011;58089;48.752;11.338;2024-02-14T02:48:26;14.13;;;6.00;;
70535;SDS011;58089;48.752;11.338;2024-02-14T02:50:51;14.17;;;5.87;;
70535;SDS011;58089;48.752;11.338;2024-02-14T02:53:18;14.27;;;6.15;;
70535;SDS011;58089;48.752;11.338;2024-02-14T02:55:43;11.63;;;5.05;;
70535;SDS011;58089;48.752;11.338;2024-02-14T02:58:09;15.60;;;5.33;;
70535;SDS011;58089;48.752;11.338;2024-02-14T03:00:34;11.67;;;4.50;;
70535;SDS011;58089;48.752;11.338;2024-02-14T03:03:00;12.73;;;4.70;;
70535;SDS011;58089;48.752;11.338;2024-02-14T03:05:27;10.80;;;4.13;;
70535;SDS011;58089;48.752;11.338;2024-02-14T03:07:54;12.43;;;4.40;;
70535;SDS011;58089;48.752;11.338;2024-02-14T03:10:22;12.13;;;4.22;;
70535;SDS011;58089;48.752;11.338;2024-02-14T03:12:47;11.33;;;4.20;;
70535;SDS011;58089;48.752;11.338;2024-02-14T03:15:13;10.07;;;3.85;;
70535;SDS011;58089;48.752;11.338;2024-02-14T03:17:39;6.78;;;3.30;;
70535;SDS011;58089;48.752;11.338;2024-02-14T03:20:05;7.67;;;3.53;;
70535;SDS011;58089;48.752;11.338;2024-02-14T03:22:40;8.50;;;2.63;;
70535;SDS011;58089;48.752;11.338;2024-02-14T03:25:12;7.97;;;3.20;;
70535;SDS011;58089;48.752;11.338;2024-02-14T03:27:39;7.25;;;3.10;;
70535;SDS011;58089;48.752;11.338;2024-02-14T03:30:05;8.13;;;3.47;;
70535;SDS011;58089;48.752;11.338;2024-02-14T03:32:31;8.98;;;3.03;;
70535;SDS011;58089;48.752;11.338;2024-02-14T03:34:57;9.82;;;3.28;;
70535;SDS011;58089;48.752;11.338;2024-02-14T03:37:23;8.10;;;2.70;;
70535;SDS011;58089;48.752;11.338;2024-02-14T03:39:48;6.73;;;2.67;;
70535;SDS011;58089;48.752;11.338;2024-02-14T03:42:13;6.37;;;2.63;;
70535;SDS011;58089;48.752;11.338;2024-02-14T03:44:40;8.95;;;2.65;;
70535;SDS011;58089;48.752;11.338;2024-02-14T03:47:06;6.53;;;2.80;;
70535;SDS011;58089;48.752;11.338;2024-02-14T03:49:31;6.53;;;2.37;;
70535;SDS011;58089;48.752;11.338;2024-02-14T03:51:56;7.00;;;3.03;;
70535;SDS011;58089;48.752;11.338;2024-02-14T03:54:22;7.87;;;2.60;;
70535;SDS011;58089;48.752;11.338;2024-02-14T03:56:48;6.35;;;2.20;;
70535;SDS011;58089;48.752;11.338;2024-02-14T03:59:14;5.80;;;2.53;;
70535;SDS011;58089;48.752;11.338;2024-02-14T04:01:43;7.13;;;2.60;;
70535;SDS011;58089;48.752;11.338;2024-02-14T04:04:10;7.33;;;2.60;;
70535;SDS011;58089;48.752;11.338;2024-02-14T04:06:35;6.20;;;2.90;;
70535;SDS011;58089;48.752;11.338;2024-02-14T04:09:00;8.23;;;3.10;;
70535;SDS011;58089;48.752;11.338;2024-02-14T04:11:25;6.97;;;2.80;;
70535;SDS011;58089;48.752;11.338;2024-02-14T04:13:51;6.67;;;2.30;;
70535;SDS011;58089;48.752;11.338;2024-02-14T04:16:18;7.73;;;2.73;;
70535;SDS011;58089;48.752;11.338;2024-02-14T04:18:45;7.28;;;2.80;;
70535;SDS011;58089;48.752;11.338;2024-02-14T04:21:10;5.97;;;2.60;;
70535;SDS011;58089;48.752;11.338;2024-02-14T04:23:35;8.50;;;3.20;;
70535;SDS011;58089;48.752;11.338;2024-02-14T04:26:01;7.47;;;3.33;;
70535;SDS011;58089;48.752;11.338;2024-02-14T04:28:26;8.30;;;3.00;;
70535;SDS011;58089;48.752;11.338;2024-02-14T04:30:51;7.43;;;2.83;;
70535;SDS011;58089;48.752;11.338;2024-02-14T04:33:18;8.73;;;3.10;;
70535;SDS011;58089;48.752;11.338;2024-02-14T04:35:43;5.73;;;2.80;;
70535;SDS011;58089;48.752;11.338;2024-02-14T04:38:09;6.60;;;2.78;;
70535;SDS011;58089;48.752;11.338;2024-02-14T04:40:34;8.80;;;3.10;;
70535;SDS011;58089;48.752;11.338;2024-02-14T04:43:00;8.27;;;3.23;;
70535;SDS011;58089;48.752;11.338;2024-02-14T04:45:25;8.30;;;3.30;;
70535;SDS011;58089;48.752;11.338;2024-02-14T04:47:51;7.18;;;3.10;;
70535;SDS011;58089;48.752;11.338;2024-02-14T04:50:16;8.17;;;3.30;;
70535;SDS011;58089;48.752;11.338;2024-02-14T04:52:43;7.97;;;3.55;;
70535;SDS011;58089;48.752;11.338;2024-02-14T04:55:09;6.40;;;3.30;;
70535;SDS011;58089;48.752;11.338;2024-02-14T04:57:34;8.50;;;3.47;;
70535;SDS011;58089;48.752;11.338;2024-02-14T05:00:02;7.63;;;3.10;;
70535;SDS011;58089;48.752;11.338;2024-02-14T05:02:29;7.78;;;3.50;;
70535;SDS011;58089;48.752;11.338;2024-02-14T05:04:55;8.50;;;3.40;;
70535;SDS011;58089;48.752;11.338;2024-02-14T05:07:20;6.67;;;2.97;;
70535;SDS011;58089;48.752;11.338;2024-02-14T05:09:45;6.53;;;3.43;;
70535;SDS011;58089;48.752;11.338;2024-02-14T05:12:13;11.83;;;5.20;;
70535;SDS011;58089;48.752;11.338;2024-02-14T05:14:38;12.05;;;6.65;;
70535;SDS011;58089;48.752;11.338;2024-02-14T05:17:05;12.27;;;6.10;;
70535;SDS011;58089;48.752;11.338;2024-02-14T05:19:31;13.63;;;6.20;;
70535;SDS011;58089;48.752;11.338;2024-02-14T05:21:57;10.82;;;5.38;;
70535;SDS011;58089;48.752;11.338;2024-02-14T05:24:23;18.20;;;9.13;;
70535;SDS011;58089;48.752;11.338;2024-02-14T05:26:48;16.67;;;8.93;;
70535;SDS011;58089;48.752;11.338;2024-02-14T05:29:14;16.60;;;7.72;;
70535;SDS011;58089;48.752;11.338;2024-02-14T05:31:43;12.90;;;6.20;;
70535;SDS011;58089;48.752;11.338;2024-02-14T05:34:09;9.20;;;5.20;;
70535;SDS011;58089;48.752;11.338;2024-02-14T05:36:35;9.57;;;4.63;;
70535;SDS011;58089;48.752;11.338;2024-02-14T05:39:01;9.25;;;4.15;;
70535;SDS011;58089;48.752;11.338;2024-02-14T05:41:27;8.90;;;4.80;;
70535;SDS011;58089;48.752;11.338;2024-02-14T05:43:52;8.70;;;4.40;;
70535;SDS011;58089;48.752;11.338;2024-02-14T05:46:17;11.03;;;5.20;;
70535;SDS011;58089;48.752;11.338;2024-02-14T05:48:45;9.88;;;4.50;;
70535;SDS011;58089;48.752;11.338;2024-02-14T05:51:11;8.43;;;3.70;;
70535;SDS011;58089;48.752;11.338;2024-02-14T05:53:36;7.83;;;3.73;;
70535;SDS011;58089;48.752;11.338;2024-02-14T05:56:01;8.67;;;3.77;;
70535;SDS011;58089;48.752;11.338;2024-02-14T05:58:26;7.90;;;4.00;;
70535;SDS011;58089;48.752;11.338;2024-02-14T06:00:53;10.10;;;4.00;;
70535;SDS011;58089;48.752;11.338;2024-02-14T06:03:20;7.45;;;3.50;;
70535;SDS011;58089;48.752;11.338;2024-02-14T06:05:45;12.13;;;5.87;;
70535;SDS011;58089;48.752;11.338;2024-02-14T06:08:11;15.98;;;11.00;;
70535;SDS011;58089;48.752;11.338;2024-02-14T06:10:37;15.07;;;7.50;;
70535;SDS011;58089;48.752;11.338;2024-02-14T06:13:04;15.95;;;7.60;;
70535;SDS011;58089;48.752;11.338;2024-02-14T06:15:29;13.47;;;7.67;;
70535;SDS011;58089;48.752;11.338;2024-02-14T06:17:55;10.73;;;6.10;;
70535;SDS011;58089;48.752;11.338;2024-02-14T06:20:20;11.60;;;6.27;;
70535;SDS011;58089;48.752;11.338;2024-02-14T06:22:46;13.27;;;6.03;;
70535;SDS011;58089;48.752;11.338;2024-02-14T06:25:11;13.80;;;6.67;;
70535;SDS011;58089;48.752;11.338;2024-02-14T06:27:36;16.30;;;6.60;;
70535;SDS011;58089;48.752;11.338;2024-02-14T06:30:02;13.52;;;6.88;;
70535;SDS011;58089;48.752;11.338;2024-02-14T06:32:29;23.10;;;9.15;;
70535;SDS011;58089;48.752;11.338;2024-02-14T06:34:54;21.03;;;9.27;;
70535;SDS011;58089;48.752;11.338;2024-02-14T06:37:19;22.20;;;7.93;;
70535;SDS011;58089;48.752;11.338;2024-02-14T06:39:45;19.60;;;8.20;;
70535;SDS011;58089;48.752;11.338;2024-02-14T06:42:10;17.93;;;8.43;;
70535;SDS011;58089;48.752;11.338;2024-02-14T06:44:36;17.45;;;7.90;;
70535;SDS011;58089;48.752;11.338;2024-02-14T06:47:01;16.37;;;6.83;;
70535;SDS011;58089;48.752;11.338;2024-02-14T06:49:26;12.77;;;5.80;;
70535;SDS011;58089;48.752;11.338;2024-02-14T06:51:52;16.37;;;6.13;;
70535;SDS011;58089;48.752;11.338;2024-02-14T06:54:17;11.67;;;5.67;;
70535;SDS011;58089;48.752;11.338;2024-02-14T06:56:44;8.75;;;5.03;;
70535;SDS011;58089;48.752;11.338;2024-02-14T06:59:10;8.57;;;4.67;;
70535;SDS011;58089;48.752;11.338;2024-02-14T07:01:35;9.90;;;4.57;;
70535;SDS011;58089;48.752;11.338;2024-02-14T07:04:00;8.87;;;5.10;;
70535;SDS011;58089;48.752;11.338;2024-02-14T07:06:26;13.43;;;5.00;;
70535;SDS011;58089;48.752;11.338;2024-02-14T07:08:52;8.73;;;5.00;;
70535;SDS011;58089;48.752;11.338;2024-02-14T07:11:18;11.87;;;4.53;;
70535;SDS011;58089;48.752;11.338;2024-02-14T07:13:43;9.00;;;4.90;;
70535;SDS011;58089;48.752;11.338;2024-02-14T07:16:08;8.73;;;4.57;;
70535;SDS011;58089;48.752;11.338;2024-02-14T07:18:34;9.50;;;4.57;;
70535;SDS011;58089;48.752;11.338;2024-02-14T07:20:59;13.63;;;4.90;;
70535;SDS011;58089;48.752;11.338;2024-02-14T07:23:25;9.80;;;5.90;;
70535;SDS011;58089;48.752;11.338;2024-02-14T07:25:51;12.07;;;6.40;;
70535;SDS011;58089;48.752;11.338;2024-02-14T07:28:16;11.10;;;5.73;;
70535;SDS011;58089;48.752;11.338;2024-02-14T07:30:42;12.02;;;6.07;;
70535;SDS011;58089;48.752;11.338;2024-02-14T07:33:08;11.33;;;5.87;;
70535;SDS011;58089;48.752;11.338;2024-02-14T07:35:34;13.95;;;6.78;;
70535;SDS011;58089;48.752;11.338;2024-02-14T07:38:00;15.90;;;5.90;;
70535;SDS011;58089;48.752;11.338;2024-02-14T07:40:25;14.20;;;7.50;;
70535;SDS011;58089;48.752;11.338;2024-02-14T07:42:52;14.80;;;7.23;;
70535;SDS011;58089;48.752;11.338;2024-02-14T07:45:17;12.65;;;7.80;;
70535;SDS011;58089;48.752;11.338;2024-02-14T07:47:43;13.97;;;8.30;;
70535;SDS011;58089;48.752;11.338;2024-02-14T07:50:08;15.50;;;8.77;;
70535;SDS011;58089;48.752;11.338;2024-02-14T07:52:34;11.90;;;7.53;;
70535;SDS011;58089;48.752;11.338;2024-02-14T07:54:59;15.13;;;6.90;;
70535;SDS011;58089;48.752;11.338;2024-02-14T07:57:25;9.93;;;5.83;;
70535;SDS011;58089;48.752;11.338;2024-02-14T07:59:51;11.87;;;5.50;;
70535;SDS011;58089;48.752;11.338;2024-02-14T08:02:17;10.07;;;5.60;;
70535;SDS011;58089;48.752;11.338;2024-02-14T08:04:42;9.48;;;4.78;;
70535;SDS011;58089;48.752;11.338;2024-02-14T08:07:08;11.33;;;5.27;;
70535;SDS011;58089;48.752;11.338;2024-02-14T08:09:34;12.27;;;5.65;;
70535;SDS011;58089;48.752;11.338;2024-02-14T08:12:00;10.53;;;5.90;;
70535;SDS011;58089;48.752;11.338;2024-02-14T08:14:25;11.80;;;6.43;;
70535;SDS011;58089;48.752;11.338;2024-02-14T08:16:51;14.20;;;6.68;;
70535;SDS011;58089;48.752;11.338;2024-02-14T08:19:17;11.85;;;6.10;;
70535;SDS011;58089;48.752;11.338;2024-02-14T08:21:43;10.80;;;5.53;;
70535;SDS011;58089;48.752;11.338;2024-02-14T08:24:09;8.75;;;4.60;;
70535;SDS011;58089;48.752;11.338;2024-02-14T08:26:34;8.83;;;5.10;;
70535;SDS011;58089;48.752;11.338;2024-02-14T08:28:59;10.93;;;5.40;;
70535;SDS011;58089;48.752;11.338;2024-02-14T08:31:25;12.63;;;5.73;;
70535;SDS011;58089;48.752;11.338;2024-02-14T08:33:50;11.33;;;5.17;;
70535;SDS011;58089;48.752;11.338;2024-02-14T08:36:15;10.17;;;4.93;;
70535;SDS011;58089;48.752;11.338;2024-02-14T08:38:44;8.87;;;4.60;;
70535;SDS011;58089;48.752;11.338;2024-02-14T08:41:09;12.00;;;4.70;;
70535;SDS011;58089;48.752;11.338;2024-02-14T08:43:34;8.45;;;4.40;;
70535;SDS011;58089;48.752;11.338;2024-02-14T08:46:00;8.43;;;4.63;;
70535;SDS011;58089;48.752;11.338;2024-02-14T08:48:25;9.73;;;3.67;;
70535;SDS011;58089;48.752;11.338;2024-02-14T08:50:52;10.88;;;4.45;;
70535;SDS011;58089;48.752;11.338;2024-02-14T08:53:18;8.73;;;4.23;;
70535;SDS011;58089;48.752;11.338;2024-02-14T08:55:43;8.85;;;4.13;;
70535;SDS011;58089;48.752;11.338;2024-02-14T08:58:09;10.33;;;4.30;;
70535;SDS011;58089;48.752;11.338;2024-02-14T09:00:35;9.93;;;4.60;;
70535;SDS011;58089;48.752;11.338;2024-02-14T09:03:04;8.10;;;4.07;;
70535;SDS011;58089;48.752;11.338;2024-02-14T09:05:30;9.10;;;4.45;;
70535;SDS011;58089;48.752;11.338;2024-02-14T09:07:56;10.33;;;4.40;;
70535;SDS011;58089;48.752;11.338;2024-02-14T09:10:22;8.48;;;3.97;;
70535;SDS011;58089;48.752;11.338;2024-02-14T09:12:47;9.50;;;3.93;;
70535;SDS011;58089;48.752;11.338;2024-02-14T09:15:12;10.65;;;4.18;;
70535;SDS011;58089;48.752;11.338;2024-02-14T09:17:38;10.47;;;4.00;;
70535;SDS011;58089;48.752;11.338;2024-02-14T09:20:05;9.18;;;4.30;;
70535;SDS011;58089;48.752;11.338;2024-02-14T09:22:37;10.98;;;4.30;;
70535;SDS011;58089;48.752;11.338;2024-02-14T09:25:03;10.20;;;4.57;;
70535;SDS011;58089;48.752;11.338;2024-02-14T09:27:29;7.85;;;4.07;;
70535;SDS011;58089;48.752;11.338;2024-02-14T09:29:58;8.93;;;4.20;;
70535;SDS011;58089;48.752;11.338;2024-02-14T09:32:23;8.07;;;3.80;;
70535;SDS011;58089;48.752;11.338;2024-02-14T09:34:49;9.37;;;4.63;;
70535;SDS011;58089;48.752;11.338;2024-02-14T09:37:15;8.93;;;4.57;;
70535;SDS011;58089;48.752;11.338;2024-02-14T09:39:41;8.90;;;4.30;;
70535;SDS011;58089;48.752;11.338;2024-02-14T09:42:09;9.57;;;4.50;;
70535;SDS011;58089;48.752;11.338;2024-02-14T09:44:38;8.27;;;4.07;;
70535;SDS011;58089;48.752;11.338;2024-02-14T09:47:05;9.43;;;4.17;;
70535;SDS011;58089;48.752;11.338;2024-02-14T09:49:31;8.48;;;4.20;;
70535;SDS011;58089;48.752;11.338;2024-02-14T09:51:58;9.20;;;3.92;;
70535;SDS011;58089;48.752;11.338;2024-02-14T09:54:24;8.73;;;4.38;;
70535;SDS011;58089;48.752;11.338;2024-02-14T09:56:50;7.57;;;3.80;;
70535;SDS011;58089;48.752;11.338;2024-02-14T09:59:20;8.98;;;3.58;;
70535;SDS011;58089;48.752;11.338;2024-02-14T10:01:46;9.48;;;3.88;;
70535;SDS011;58089;48.752;11.338;2024-02-14T10:04:13;9.48;;;4.10;;
70535;SDS011;58089;48.752;11.338;2024-02-14T10:06:38;124.23;;;36.27;;
70535;SDS011;58089;48.752;11.338;2024-02-14T10:09:03;105.23;;;26.53;;
70535;SDS011;58089;48.752;11.338;2024-02-14T10:11:30;26.57;;;7.90;;
70535;SDS011;58089;48.752;11.338;2024-02-14T10:13:57;25.98;;;11.15;;
70535;SDS011;58089;48.752;11.338;2024-02-14T10:16:26;20.40;;;8.10;;
70535;SDS011;58089;48.752;11.338;2024-02-14T10:18:52;16.10;;;5.20;;
70535;SDS011;58089;48.752;11.338;2024-02-14T10:21:17;8.20;;;3.30;;
70535;SDS011;58089;48.752;11.338;2024-02-14T10:23:44;86.13;;;17.30;;
70535;SDS011;58089;48.752;11.338;2024-02-14T10:26:11;35.20;;;6.95;;
70535;SDS011;58089;48.752;11.338;2024-02-14T10:28:40;13.45;;;4.32;;
70535;SDS011;58089;48.752;11.338;2024-02-14T10:31:07;14.98;;;4.80;;
70535;SDS011;58089;48.752;11.338;2024-02-14T10:33:34;7.78;;;2.55;;
70535;SDS011;58089;48.752;11.338;2024-02-14T10:35:59;8.00;;;2.50;;
70535;SDS011;58089;48.752;11.338;2024-02-14T10:38:27;8.85;;;2.33;;
70535;SDS011;58089;48.752;11.338;2024-02-14T10:40:57;8.47;;;2.70;;
70535;SDS011;58089;48.752;11.338;2024-02-14T10:43:23;17.20;;;3.67;;
70535;SDS011;58089;48.752;11.338;2024-02-14T10:45:49;22.00;;;6.07;;
70535;SDS011;58089;48.752;11.338;2024-02-14T10:48:14;66.80;;;16.50;;
70535;SDS011;58089;48.752;11.338;2024-02-14T10:50:42;12.05;;;4.30;;
70535;SDS011;58089;48.752;11.338;2024-02-14T10:53:12;6.85;;;2.45;;
70535;SDS011;58089;48.752;11.338;2024-02-14T10:55:38;7.15;;;2.60;;
70535;SDS011;58089;48.752;11.338;2024-02-14T10:58:06;6.45;;;2.70;;
70535;SDS011;58089;48.752;11.338;2024-02-14T11:00:33;8.33;;;2.43;;
70535;SDS011;58089;48.752;11.338;2024-02-14T11:02:58;7.47;;;2.50;;
70535;SDS011;58089;48.752;11.338;2024-02-14T11:05:24;6.50;;;2.03;;
70535;SDS011;58089;48.752;11.338;2024-02-14T11:07:50;5.45;;;2.05;;
70535;SDS011;58089;48.752;11.338;2024-02-14T11:10:18;7.53;;;2.03;;
70535;SDS011;58089;48.752;11.338;2024-02-14T11:12:46;5.40;;;2.20;;
70535;SDS011;58089;48.752;11.338;2024-02-14T11:15:15;8.63;;;2.10;;
70535;SDS011;58089;48.752;11.338;2024-02-14T11:17:42;6.90;;;2.30;;
70535;SDS011;58089;48.752;11.338;2024-02-14T11:22:49;7.60;;;2.97;;
70535;SDS011;58089;48.752;11.338;2024-02-14T11:25:37;5.72;;;2.03;;
70535;SDS011;58089;48.752;11.338;2024-02-14T11:28:18;8.48;;;1.92;;
70535;SDS011;58089;48.752;11.338;2024-02-14T11:30:49;7.22;;;1.98;;
70535;SDS011;58089;48.752;11.338;2024-02-14T11:33:18;7.07;;;2.25;;
70535;SDS011;58089;48.752;11.338;2024-02-14T11:35:49;5.87;;;2.07;;
70535;SDS011;58089;48.752;11.338;2024-02-14T11:38:16;7.68;;;2.05;;
70535;SDS011;58089;48.752;11.338;2024-02-14T11:40:42;6.25;;;2.17;;
70535;SDS011;58089;48.752;11.338;2024-02-14T11:43:15;5.85;;;2.13;;
70535;SDS011;58089;48.752;11.338;2024-02-14T11:45:42;7.28;;;2.60;;
70535;SDS011;58089;48.752;11.338;2024-02-14T11:48:11;8.17;;;2.50;;
70535;SDS011;58089;48.752;11.338;2024-02-14T11:50:40;7.47;;;2.40;;
70535;SDS011;58089;48.752;11.338;2024-02-14T11:53:08;7.75;;;2.63;;
70535;SDS011;58089;48.752;11.338;2024-02-14T11:55:35;7.30;;;2.55;;
70535;SDS011;58089;48.752;11.338;2024-02-14T11:58:02;13.82;;;6.97;;
70535;SDS011;58089;48.752;11.338;2024-02-14T12:00:38;12.40;;;5.47;;
70535;SDS011;58089;48.752;11.338;2024-02-14T12:03:08;15.98;;;5.07;;
70535;SDS011;58089;48.752;11.338;2024-02-14T12:05:41;7.45;;;3.03;;
70535;SDS011;58089;48.752;11.338;2024-02-14T12:08:09;8.27;;;3.00;;
70535;SDS011;58089;48.752;11.338;2024-02-14T12:10:35;6.20;;;2.40;;
70535;SDS011;58089;48.752;11.338;2024-02-14T12:13:05;6.00;;;2.50;;
70535;SDS011;58089;48.752;11.338;2024-02-14T12:15:36;5.70;;;2.40;;
70535;SDS011;58089;48.752;11.338;2024-02-14T12:18:04;5.93;;;2.08;;
70535;SDS011;58089;48.752;11.338;2024-02-14T12:20:30;8.37;;;2.37;;
70535;SDS011;58089;48.752;11.338;2024-02-14T12:22:55;5.70;;;2.20;;
70535;SDS011;58089;48.752;11.338;2024-02-14T12:25:20;6.00;;;2.17;;
70535;SDS011;58089;48.752;11.338;2024-02-14T12:27:52;6.25;;;2.30;;
70535;SDS011;58089;48.752;11.338;2024-02-14T12:30:18;5.93;;;2.10;;
70535;SDS011;58089;48.752;11.338;2024-02-14T12:32:45;8.88;;;2.47;;
70535;SDS011;58089;48.752;11.338;2024-02-14T12:35:11;7.38;;;2.20;;
70535;SDS011;58089;48.752;11.338;2024-02-14T12:37:36;7.97;;;2.20;;
70535;SDS011;58089;48.752;11.338;2024-02-14T12:40:02;8.07;;;3.33;;
70535;SDS011;58089;48.752;11.338;2024-02-14T12:42:29;5.65;;;2.17;;
70535;SDS011;58089;48.752;11.338;2024-02-14T12:44:54;6.90;;;2.60;;
70535;SDS011;58089;48.752;11.338;2024-02-14T12:47:21;5.30;;;2.03;;
70535;SDS011;58089;48.752;11.338;2024-02-14T12:49:47;5.90;;;2.10;;
70535;SDS011;58089;48.752;11.338;2024-02-14T12:52:13;6.18;;;1.50;;
70535;SDS011;58089;48.752;11.338;2024-02-14T12:54:39;5.87;;;1.70;;
70535;SDS011;58089;48.752;11.338;2024-02-14T12:57:04;6.30;;;1.77;;
70535;SDS011;58089;48.752;11.338;2024-02-14T12:59:29;7.07;;;2.80;;
70535;SDS011;58089;48.752;11.338;2024-02-14T13:01:55;6.90;;;2.10;;
70535;SDS011;58089;48.752;11.338;2024-02-14T13:04:20;10.23;;;3.40;;
70535;SDS011;58089;48.752;11.338;2024-02-14T13:06:46;7.07;;;3.15;;
70535;SDS011;58089;48.752;11.338;2024-02-14T13:09:13;7.82;;;2.40;;
70535;SDS011;58089;48.752;11.338;2024-02-14T13:11:39;4.78;;;1.70;;
70535;SDS011;58089;48.752;11.338;2024-02-14T13:14:06;7.13;;;2.70;;
70535;SDS011;58089;48.752;11.338;2024-02-14T13:16:31;6.20;;;2.13;;
70535;SDS011;58089;48.752;11.338;2024-02-14T13:18:57;6.73;;;2.80;;
70535;SDS011;58089;48.752;11.338;2024-02-14T13:21:25;10.10;;;4.07;;
70535;SDS011;58089;48.752;11.338;2024-02-14T13:23:50;6.77;;;2.60;;
70535;SDS011;58089;48.752;11.338;2024-02-14T13:26:15;6.27;;;2.23;;
70535;SDS011;58089;48.752;11.338;2024-02-14T13:28:41;7.20;;;2.37;;
70535;SDS011;58089;48.752;11.338;2024-02-14T13:31:06;5.77;;;2.43;;
70535;SDS011;58089;48.752;11.338;2024-02-14T13:33:31;6.73;;;2.50;;
70535;SDS011;58089;48.752;11.338;2024-02-14T13:35:57;6.55;;;2.45;;
70535;SDS011;58089;48.752;11.338;2024-02-14T13:38:22;7.93;;;2.60;;
70535;SDS011;58089;48.752;11.338;2024-02-14T13:40:47;6.07;;;2.10;;
70535;SDS011;58089;48.752;11.338;2024-02-14T13:43:13;8.38;;;2.55;;
70535;SDS011;58089;48.752;11.338;2024-02-14T13:45:42;6.05;;;1.98;;
70535;SDS011;58089;48.752;11.338;2024-02-14T13:48:08;6.50;;;2.30;;
70535;SDS011;58089;48.752;11.338;2024-02-14T13:50:34;10.45;;;4.72;;
70535;SDS011;58089;48.752;11.338;2024-02-14T13:53:00;7.30;;;2.40;;
70535;SDS011;58089;48.752;11.338;2024-02-14T13:55:25;5.10;;;2.17;;
70535;SDS011;58089;48.752;11.338;2024-02-14T13:57:50;7.77;;;3.63;;
70535;SDS011;58089;48.752;11.338;2024-02-14T14:00:16;8.40;;;3.00;;
70535;SDS011;58089;48.752;11.338;2024-02-14T14:02:41;5.70;;;2.40;;
70535;SDS011;58089;48.752;11.338;2024-02-14T14:05:08;5.40;;;2.17;;
70535;SDS011;58089;48.752;11.338;2024-02-14T14:07:34;5.97;;;2.15;;
70535;SDS011;58089;48.752;11.338;2024-02-14T14:10:01;7.28;;;2.40;;
70535;SDS011;58089;48.752;11.338;2024-02-14T14:12:28;6.35;;;2.35;;
70535;SDS011;58089;48.752;11.338;2024-02-14T14:14:53;5.50;;;2.20;;
70535;SDS011;58089;48.752;11.338;2024-02-14T14:17:18;6.63;;;2.70;;
70535;SDS011;58089;48.752;11.338;2024-02-14T14:19:44;6.23;;;2.00;;
70535;SDS011;58089;48.752;11.338;2024-02-14T14:22:09;5.97;;;2.10;;
70535;SDS011;58089;48.752;11.338;2024-02-14T14:24:34;7.23;;;2.17;;
70535;SDS011;58089;48.752;11.338;2024-02-14T14:27:00;6.20;;;1.80;;